sensor_id;sensor_type;location;lat;lon;timestamp;P1;durP1;ratioP1;P2;durP2;ratioP2
19927;SDS011;10126;50.876;4.470;2023-02-14T00:00:30;0.20;;;0.20;;
19927;SDS011;10126;50.876;4.470;2023-02-14T00:02:31;0.50;;;0.50;;
19927;SDS011;10126;50.876;4.470;2023-02-14T00:04:32;0.30;;;0.30;;
19927;SDS011;10126;50.876;4.470;2023-02-14T00:06:33;0.40;;;0.40;;
19927;SDS011;10126;50.876;4.470;2023-02-14T00:08:34;0.40;;;0.40;;
19927;SDS011;10126;50.876;4.470;2023-02-14T00:10:35;0.40;;;0.40;;
19927;SDS011;10126;50.876;4.470;2023-02-14T00:12:36;0.40;;;0.40;;
19927;SDS011;10126;50.876;4.470;2023-02-14T00:14:36;0.40;;;0.40;;
19927;SDS011;10126;50.876;4.470;2023-02-14T00:16:56;0.40;;;0.40;;
19927;SDS011;10126;50.876;4.470;2023-02-14T00:18:57;0.40;;;0.40;;
19927;SDS011;10126;50.876;4.470;2023-02-14T00:21:03;0.50;;;0.50;;
19927;SDS011;10126;50.876;4.470;2023-02-14T00:23:04;0.30;;;0.30;;
19927;SDS011;10126;50.876;4.470;2023-02-14T00:25:05;0.30;;;0.30;;
19927;SDS011;10126;50.876;4.470;2023-02-14T00:27:06;0.30;;;0.30;;
19927;SDS011;10126;50.876;4.470;2023-02-14T00:29:07;0.40;;;0.40;;
19927;SDS011;10126;50.876;4.470;2023-02-14T00:31:10;0.40;;;0.40;;
19927;SDS011;10126;50.876;4.470;2023-02-14T00:33:10;0.47;;;0.47;;
19927;SDS011;10126;50.876;4.470;2023-02-14T00:35:13;0.40;;;0.40;;
19927;SDS011;10126;50.876;4.470;2023-02-14T00:37:14;0.40;;;0.40;;
19927;SDS011;10126;50.876;4.470;2023-02-14T00:39:14;0.40;;;0.40;;
19927;SDS011;10126;50.876;4.470;2023-02-14T00:41:16;0.40;;;0.40;;
19927;SDS011;10126;50.876;4.470;2023-02-14T00:43:19;0.40;;;0.40;;
19927;SDS011;10126;50.876;4.470;2023-02-14T00:45:20;0.50;;;0.50;;
19927;SDS011;10126;50.876;4.470;2023-02-14T00:47:21;0.40;;;0.40;;
19927;SDS011;10126;50.876;4.470;2023-02-14T00:49:21;0.40;;;0.40;;
19927;SDS011;10126;50.876;4.470;2023-02-14T00:51:22;0.40;;;0.40;;
19927;SDS011;10126;50.876;4.470;2023-02-14T00:53:23;0.30;;;0.30;;
19927;SDS011;10126;50.876;4.470;2023-02-14T00:55:23;0.40;;;0.40;;
19927;SDS011;10126;50.876;4.470;2023-02-14T00:57:24;0.50;;;0.50;;
19927;SDS011;10126;50.876;4.470;2023-02-14T00:59:25;0.40;;;0.40;;
19927;SDS011;10126;50.876;4.470;2023-02-14T01:01:25;0.50;;;0.50;;
19927;SDS011;10126;50.876;4.470;2023-02-14T01:03:27;0.40;;;0.40;;
19927;SDS011;10126;50.876;4.470;2023-02-14T01:05:27;0.40;;;0.40;;
19927;SDS011;10126;50.876;4.470;2023-02-14T01:07:28;0.30;;;0.30;;
19927;SDS011;10126;50.876;4.470;2023-02-14T01:09:28;0.30;;;0.30;;
19927;SDS011;10126;50.876;4.470;2023-02-14T01:11:29;0.40;;;0.40;;
19927;SDS011;10126;50.876;4.470;2023-02-14T01:13:30;0.40;;;0.40;;
19927;SDS011;10126;50.876;4.470;2023-02-14T01:15:31;0.40;;;0.40;;
19927;SDS011;10126;50.876;4.470;2023-02-14T01:17:32;0.50;;;0.50;;
19927;SDS011;10126;50.876;4.470;2023-02-14T01:19:32;0.40;;;0.40;;
19927;SDS011;10126;50.876;4.470;2023-02-14T01:21:33;0.40;;;0.40;;
19927;SDS011;10126;50.876;4.470;2023-02-14T01:23:34;0.40;;;0.40;;
19927;SDS011;10126;50.876;4.470;2023-02-14T01:25:37;0.40;;;0.40;;
19927;SDS011;10126;50.876;4.470;2023-02-14T01:27:39;0.40;;;0.40;;
19927;SDS011;10126;50.876;4.470;2023-02-14T01:29:39;0.50;;;0.50;;
19927;SDS011;10126;50.876;4.470;2023-02-14T01:31:40;0.50;;;0.50;;
19927;SDS011;10126;50.876;4.470;2023-02-14T01:33:41;0.40;;;0.40;;
19927;SDS011;10126;50.876;4.470;2023-02-14T01:35:42;0.40;;;0.40;;
19927;SDS011;10126;50.876;4.470;2023-02-14T01:37:43;0.40;;;0.40;;
19927;SDS011;10126;50.876;4.470;2023-02-14T01:39:44;0.50;;;0.50;;
19927;SDS011;10126;50.876;4.470;2023-02-14T01:41:45;0.40;;;0.40;;
19927;SDS011;10126;50.876;4.470;2023-02-14T01:45:56;0.33;;;0.33;;
19927;SDS011;10126;50.876;4.470;2023-02-14T01:47:56;0.40;;;0.40;;
19927;SDS011;10126;50.876;4.470;2023-02-14T01:50:00;0.40;;;0.40;;
19927;SDS011;10126;50.876;4.470;2023-02-14T01:52:13;0.40;;;0.40;;
19927;SDS011;10126;50.876;4.470;2023-02-14T01:54:17;0.40;;;0.40;;
19927;SDS011;10126;50.876;4.470;2023-02-14T01:56:26;0.40;;;0.40;;
19927;SDS011;10126;50.876;4.470;2023-02-14T01:58:32;0.50;;;0.50;;
19927;SDS011;10126;50.876;4.470;2023-02-14T02:00:36;0.40;;;0.40;;
19927;SDS011;10126;50.876;4.470;2023-02-14T02:02:57;0.40;;;0.40;;
19927;SDS011;10126;50.876;4.470;2023-02-14T02:04:59;0.30;;;0.30;;
19927;SDS011;10126;50.876;4.470;2023-02-14T02:07:01;0.40;;;0.40;;
19927;SDS011;10126;50.876;4.470;2023-02-14T02:09:11;0.40;;;0.40;;
19927;SDS011;10126;50.876;4.470;2023-02-14T02:11:19;0.40;;;0.40;;
19927;SDS011;10126;50.876;4.470;2023-02-14T02:13:20;0.40;;;0.40;;
19927;SDS011;10126;50.876;4.470;2023-02-14T02:15:21;0.50;;;0.50;;
19927;SDS011;10126;50.876;4.470;2023-02-14T02:38:52;0.43;;;0.40;;
19927;SDS011;10126;50.876;4.470;2023-02-14T02:43:32;0.43;;;0.43;;
19927;SDS011;10126;50.876;4.470;2023-02-14T02:48:16;0.40;;;0.40;;
19927;SDS011;10126;50.876;4.470;2023-02-14T02:53:06;0.40;;;0.40;;
19927;SDS011;10126;50.876;4.470;2023-02-14T02:58:26;0.40;;;0.40;;
19927;SDS011;10126;50.876;4.470;2023-02-14T03:00:54;0.50;;;0.50;;
19927;SDS011;10126;50.876;4.470;2023-02-14T03:02:57;0.50;;;0.50;;
19927;SDS011;10126;50.876;4.470;2023-02-14T03:05:16;0.47;;;0.47;;
19927;SDS011;10126;50.876;4.470;2023-02-14T03:07:17;0.47;;;0.47;;
19927;SDS011;10126;50.876;4.470;2023-02-14T03:11:42;0.40;;;0.40;;
19927;SDS011;10126;50.876;4.470;2023-02-14T03:14:05;0.50;;;0.50;;
19927;SDS011;10126;50.876;4.470;2023-02-14T03:16:23;0.50;;;0.50;;
19927;SDS011;10126;50.876;4.470;2023-02-14T03:20:54;0.50;;;0.50;;
19927;SDS011;10126;50.876;4.470;2023-02-14T03:23:26;0.50;;;0.40;;
19927;SDS011;10126;50.876;4.470;2023-02-14T03:25:46;0.50;;;0.50;;
19927;SDS011;10126;50.876;4.470;2023-02-14T03:27:57;0.50;;;0.50;;
19927;SDS011;10126;50.876;4.470;2023-02-14T03:39:21;0.47;;;0.47;;
19927;SDS011;10126;50.876;4.470;2023-02-14T03:41:28;0.47;;;0.47;;
19927;SDS011;10126;50.876;4.470;2023-02-14T03:43:36;0.50;;;0.50;;
19927;SDS011;10126;50.876;4.470;2023-02-14T03:45:42;0.40;;;0.40;;
19927;SDS011;10126;50.876;4.470;2023-02-14T03:47:48;0.50;;;0.50;;
19927;SDS011;10126;50.876;4.470;2023-02-14T03:49:55;0.40;;;0.40;;
19927;SDS011;10126;50.876;4.470;2023-02-14T03:52:00;0.53;;;0.53;;
19927;SDS011;10126;50.876;4.470;2023-02-14T03:54:03;0.50;;;0.50;;
19927;SDS011;10126;50.876;4.470;2023-02-14T03:56:24;0.50;;;0.50;;
19927;SDS011;10126;50.876;4.470;2023-02-14T03:58:46;0.40;;;0.40;;
19927;SDS011;10126;50.876;4.470;2023-02-14T04:00:49;0.50;;;0.50;;
19927;SDS011;10126;50.876;4.470;2023-02-14T04:02:54;0.57;;;0.57;;
19927;SDS011;10126;50.876;4.470;2023-02-14T04:05:00;0.50;;;0.50;;
19927;SDS011;10126;50.876;4.470;2023-02-14T04:07:09;0.47;;;0.47;;
19927;SDS011;10126;50.876;4.470;2023-02-14T04:09:20;0.40;;;0.40;;
19927;SDS011;10126;50.876;4.470;2023-02-14T04:11:20;0.50;;;0.50;;
19927;SDS011;10126;50.876;4.470;2023-02-14T04:13:21;0.33;;;0.33;;
19927;SDS011;10126;50.876;4.470;2023-02-14T04:15:22;0.40;;;0.40;;
19927;SDS011;10126;50.876;4.470;2023-02-14T04:17:23;0.40;;;0.40;;
19927;SDS011;10126;50.876;4.470;2023-02-14T04:19:42;0.50;;;0.50;;
19927;SDS011;10126;50.876;4.470;2023-02-14T04:21:42;0.50;;;0.50;;
19927;SDS011;10126;50.876;4.470;2023-02-14T04:23:43;0.50;;;0.50;;
19927;SDS011;10126;50.876;4.470;2023-02-14T04:25:43;0.33;;;0.33;;
19927;SDS011;10126;50.876;4.470;2023-02-14T04:27:44;0.40;;;0.40;;
19927;SDS011;10126;50.876;4.470;2023-02-14T04:29:46;0.40;;;0.40;;
19927;SDS011;10126;50.876;4.470;2023-02-14T04:31:48;0.40;;;0.40;;
19927;SDS011;10126;50.876;4.470;2023-02-14T04:33:49;0.40;;;0.40;;
19927;SDS011;10126;50.876;4.470;2023-02-14T04:35:50;0.50;;;0.50;;
19927;SDS011;10126;50.876;4.470;2023-02-14T04:37:50;0.47;;;0.47;;
19927;SDS011;10126;50.876;4.470;2023-02-14T04:39:52;0.50;;;0.50;;
19927;SDS011;10126;50.876;4.470;2023-02-14T04:41:53;0.60;;;0.60;;
19927;SDS011;10126;50.876;4.470;2023-02-14T04:43:53;0.60;;;0.60;;
19927;SDS011;10126;50.876;4.470;2023-02-14T04:45:54;0.50;;;0.50;;
19927;SDS011;10126;50.876;4.470;2023-02-14T04:47:55;0.57;;;0.40;;
19927;SDS011;10126;50.876;4.470;2023-02-14T04:49:55;0.37;;;0.37;;
19927;SDS011;10126;50.876;4.470;2023-02-14T04:51:56;0.40;;;0.40;;
19927;SDS011;10126;50.876;4.470;2023-02-14T04:53:57;0.40;;;0.40;;
19927;SDS011;10126;50.876;4.470;2023-02-14T04:55:57;0.50;;;0.50;;
19927;SDS011;10126;50.876;4.470;2023-02-14T04:57:58;0.40;;;0.40;;
19927;SDS011;10126;50.876;4.470;2023-02-14T04:59:58;0.37;;;0.37;;
19927;SDS011;10126;50.876;4.470;2023-02-14T05:01:59;0.40;;;0.40;;
19927;SDS011;10126;50.876;4.470;2023-02-14T05:04:00;0.50;;;0.50;;
19927;SDS011;10126;50.876;4.470;2023-02-14T05:06:01;0.50;;;0.50;;
19927;SDS011;10126;50.876;4.470;2023-02-14T05:08:01;0.43;;;0.43;;
19927;SDS011;10126;50.876;4.470;2023-02-14T05:10:03;0.50;;;0.50;;
19927;SDS011;10126;50.876;4.470;2023-02-14T05:12:04;0.40;;;0.40;;
19927;SDS011;10126;50.876;4.470;2023-02-14T05:14:04;0.50;;;0.50;;
19927;SDS011;10126;50.876;4.470;2023-02-14T05:16:05;0.47;;;0.47;;
19927;SDS011;10126;50.876;4.470;2023-02-14T05:18:06;0.50;;;0.50;;
19927;SDS011;10126;50.876;4.470;2023-02-14T05:20:06;1.43;;;0.50;;
19927;SDS011;10126;50.876;4.470;2023-02-14T05:22:08;0.40;;;0.40;;
19927;SDS011;10126;50.876;4.470;2023-02-14T05:24:08;0.50;;;0.50;;
19927;SDS011;10126;50.876;4.470;2023-02-14T05:26:09;0.40;;;0.40;;
19927;SDS011;10126;50.876;4.470;2023-02-14T05:28:09;0.50;;;0.50;;
19927;SDS011;10126;50.876;4.470;2023-02-14T05:30:11;0.40;;;0.40;;
19927;SDS011;10126;50.876;4.470;2023-02-14T05:32:12;0.50;;;0.50;;
19927;SDS011;10126;50.876;4.470;2023-02-14T05:34:12;0.40;;;0.40;;
19927;SDS011;10126;50.876;4.470;2023-02-14T05:36:13;0.50;;;0.50;;
19927;SDS011;10126;50.876;4.470;2023-02-14T05:38:14;1.20;;;0.53;;
19927;SDS011;10126;50.876;4.470;2023-02-14T05:40:14;0.50;;;0.50;;
19927;SDS011;10126;50.876;4.470;2023-02-14T05:42:15;0.60;;;0.60;;
19927;SDS011;10126;50.876;4.470;2023-02-14T05:44:16;0.47;;;0.47;;
19927;SDS011;10126;50.876;4.470;2023-02-14T05:46:16;0.50;;;0.50;;
19927;SDS011;10126;50.876;4.470;2023-02-14T05:48:17;0.47;;;0.47;;
19927;SDS011;10126;50.876;4.470;2023-02-14T05:50:18;0.40;;;0.40;;
19927;SDS011;10126;50.876;4.470;2023-02-14T05:52:19;0.40;;;0.40;;
19927;SDS011;10126;50.876;4.470;2023-02-14T05:54:19;0.60;;;0.60;;
19927;SDS011;10126;50.876;4.470;2023-02-14T05:56:20;0.47;;;0.47;;
19927;SDS011;10126;50.876;4.470;2023-02-14T05:58:20;0.50;;;0.50;;
19927;SDS011;10126;50.876;4.470;2023-02-14T06:00:21;0.50;;;0.50;;
19927;SDS011;10126;50.876;4.470;2023-02-14T06:02:23;0.30;;;0.30;;
19927;SDS011;10126;50.876;4.470;2023-02-14T06:04:24;0.40;;;0.40;;
19927;SDS011;10126;50.876;4.470;2023-02-14T06:06:24;0.40;;;0.40;;
19927;SDS011;10126;50.876;4.470;2023-02-14T06:08:25;0.40;;;0.40;;
19927;SDS011;10126;50.876;4.470;2023-02-14T06:10:26;0.50;;;0.50;;
19927;SDS011;10126;50.876;4.470;2023-02-14T06:12:26;0.40;;;0.40;;
19927;SDS011;10126;50.876;4.470;2023-02-14T06:14:27;0.50;;;0.50;;
19927;SDS011;10126;50.876;4.470;2023-02-14T06:16:28;0.40;;;0.40;;
19927;SDS011;10126;50.876;4.470;2023-02-14T06:18:28;0.57;;;0.57;;
19927;SDS011;10126;50.876;4.470;2023-02-14T06:20:29;0.50;;;0.50;;
19927;SDS011;10126;50.876;4.470;2023-02-14T06:22:30;0.60;;;0.60;;
19927;SDS011;10126;50.876;4.470;2023-02-14T06:24:31;0.63;;;0.63;;
19927;SDS011;10126;50.876;4.470;2023-02-14T06:26:31;0.40;;;0.40;;
19927;SDS011;10126;50.876;4.470;2023-02-14T06:28:34;0.60;;;0.60;;
19927;SDS011;10126;50.876;4.470;2023-02-14T06:30:35;0.57;;;0.57;;
19927;SDS011;10126;50.876;4.470;2023-02-14T06:32:36;0.40;;;0.40;;
19927;SDS011;10126;50.876;4.470;2023-02-14T06:34:36;0.40;;;0.40;;
19927;SDS011;10126;50.876;4.470;2023-02-14T06:36:38;0.40;;;0.40;;
19927;SDS011;10126;50.876;4.470;2023-02-14T06:38:39;0.50;;;0.50;;
19927;SDS011;10126;50.876;4.470;2023-02-14T06:40:40;0.43;;;0.43;;
19927;SDS011;10126;50.876;4.470;2023-02-14T06:42:41;0.40;;;0.40;;
19927;SDS011;10126;50.876;4.470;2023-02-14T06:44:41;0.40;;;0.40;;
19927;SDS011;10126;50.876;4.470;2023-02-14T06:46:42;0.50;;;0.50;;
19927;SDS011;10126;50.876;4.470;2023-02-14T06:48:43;0.50;;;0.50;;
19927;SDS011;10126;50.876;4.470;2023-02-14T06:50:45;0.40;;;0.40;;
19927;SDS011;10126;50.876;4.470;2023-02-14T06:52:46;0.40;;;0.40;;
19927;SDS011;10126;50.876;4.470;2023-02-14T06:54:47;0.47;;;0.47;;
19927;SDS011;10126;50.876;4.470;2023-02-14T06:56:47;0.60;;;0.60;;
19927;SDS011;10126;50.876;4.470;2023-02-14T06:58:48;0.50;;;0.50;;
19927;SDS011;10126;50.876;4.470;2023-02-14T07:00:49;0.50;;;0.50;;
19927;SDS011;10126;50.876;4.470;2023-02-14T07:02:49;0.60;;;0.60;;
19927;SDS011;10126;50.876;4.470;2023-02-14T07:04:50;0.60;;;0.60;;
19927;SDS011;10126;50.876;4.470;2023-02-14T07:06:51;0.40;;;0.40;;
19927;SDS011;10126;50.876;4.470;2023-02-14T07:08:51;0.50;;;0.50;;
19927;SDS011;10126;50.876;4.470;2023-02-14T07:10:55;0.50;;;0.50;;
19927;SDS011;10126;50.876;4.470;2023-02-14T07:12:56;0.40;;;0.40;;
19927;SDS011;10126;50.876;4.470;2023-02-14T07:14:57;0.40;;;0.40;;
19927;SDS011;10126;50.876;4.470;2023-02-14T07:16:58;0.60;;;0.60;;
19927;SDS011;10126;50.876;4.470;2023-02-14T07:18:58;0.40;;;0.40;;
19927;SDS011;10126;50.876;4.470;2023-02-14T07:20:59;0.53;;;0.53;;
19927;SDS011;10126;50.876;4.470;2023-02-14T07:23:00;0.60;;;0.60;;
19927;SDS011;10126;50.876;4.470;2023-02-14T07:25:00;0.57;;;0.57;;
19927;SDS011;10126;50.876;4.470;2023-02-14T07:27:01;0.30;;;0.30;;
19927;SDS011;10126;50.876;4.470;2023-02-14T07:29:02;0.33;;;0.33;;
19927;SDS011;10126;50.876;4.470;2023-02-14T07:31:02;0.40;;;0.40;;
19927;SDS011;10126;50.876;4.470;2023-02-14T07:33:03;0.40;;;0.40;;
19927;SDS011;10126;50.876;4.470;2023-02-14T07:35:04;0.40;;;0.40;;
19927;SDS011;10126;50.876;4.470;2023-02-14T07:37:05;0.40;;;0.40;;
19927;SDS011;10126;50.876;4.470;2023-02-14T07:39:06;0.30;;;0.30;;
19927;SDS011;10126;50.876;4.470;2023-02-14T07:41:07;0.40;;;0.40;;
19927;SDS011;10126;50.876;4.470;2023-02-14T07:43:07;0.40;;;0.40;;
19927;SDS011;10126;50.876;4.470;2023-02-14T07:45:08;0.40;;;0.40;;
19927;SDS011;10126;50.876;4.470;2023-02-14T07:47:09;0.53;;;0.53;;
19927;SDS011;10126;50.876;4.470;2023-02-14T07:49:09;0.50;;;0.50;;
19927;SDS011;10126;50.876;4.470;2023-02-14T07:51:10;0.40;;;0.40;;
19927;SDS011;10126;50.876;4.470;2023-02-14T07:53:11;0.50;;;0.50;;
19927;SDS011;10126;50.876;4.470;2023-02-14T07:55:12;0.40;;;0.40;;
19927;SDS011;10126;50.876;4.470;2023-02-14T07:57:13;0.30;;;0.30;;
19927;SDS011;10126;50.876;4.470;2023-02-14T07:59:13;0.23;;;0.23;;
19927;SDS011;10126;50.876;4.470;2023-02-14T08:01:15;0.40;;;0.40;;
19927;SDS011;10126;50.876;4.470;2023-02-14T08:03:16;0.40;;;0.40;;
19927;SDS011;10126;50.876;4.470;2023-02-14T08:05:16;0.37;;;0.37;;
19927;SDS011;10126;50.876;4.470;2023-02-14T08:07:17;0.30;;;0.30;;
19927;SDS011;10126;50.876;4.470;2023-02-14T08:09:18;0.30;;;0.30;;
19927;SDS011;10126;50.876;4.470;2023-02-14T08:11:25;0.30;;;0.30;;
19927;SDS011;10126;50.876;4.470;2023-02-14T08:13:44;0.30;;;0.30;;
19927;SDS011;10126;50.876;4.470;2023-02-14T08:15:45;0.30;;;0.30;;
19927;SDS011;10126;50.876;4.470;2023-02-14T08:18:04;0.27;;;0.27;;
19927;SDS011;10126;50.876;4.470;2023-02-14T08:20:05;0.20;;;0.20;;
19927;SDS011;10126;50.876;4.470;2023-02-14T08:22:06;0.27;;;0.27;;
19927;SDS011;10126;50.876;4.470;2023-02-14T08:24:07;0.30;;;0.30;;
19927;SDS011;10126;50.876;4.470;2023-02-14T08:26:08;0.30;;;0.30;;
19927;SDS011;10126;50.876;4.470;2023-02-14T08:28:08;0.30;;;0.30;;
19927;SDS011;10126;50.876;4.470;2023-02-14T08:30:09;0.30;;;0.30;;
19927;SDS011;10126;50.876;4.470;2023-02-14T08:32:10;0.30;;;0.30;;
19927;SDS011;10126;50.876;4.470;2023-02-14T08:34:11;0.30;;;0.30;;
19927;SDS011;10126;50.876;4.470;2023-02-14T08:36:12;0.40;;;0.40;;
19927;SDS011;10126;50.876;4.470;2023-02-14T08:38:13;0.30;;;0.30;;
19927;SDS011;10126;50.876;4.470;2023-02-14T08:40:14;0.40;;;0.40;;
19927;SDS011;10126;50.876;4.470;2023-02-14T08:42:15;0.30;;;0.30;;
19927;SDS011;10126;50.876;4.470;2023-02-14T08:44:15;0.30;;;0.30;;
19927;SDS011;10126;50.876;4.470;2023-02-14T08:46:16;0.40;;;0.40;;
19927;SDS011;10126;50.876;4.470;2023-02-14T08:48:17;0.30;;;0.30;;
19927;SDS011;10126;50.876;4.470;2023-02-14T08:50:17;0.30;;;0.30;;
19927;SDS011;10126;50.876;4.470;2023-02-14T08:52:18;0.30;;;0.30;;
19927;SDS011;10126;50.876;4.470;2023-02-14T08:54:19;0.30;;;0.30;;
19927;SDS011;10126;50.876;4.470;2023-02-14T08:56:20;0.30;;;0.30;;
19927;SDS011;10126;50.876;4.470;2023-02-14T08:58:21;0.30;;;0.30;;
19927;SDS011;10126;50.876;4.470;2023-02-14T09:00:22;0.30;;;0.30;;
19927;SDS011;10126;50.876;4.470;2023-02-14T09:02:22;0.30;;;0.30;;
19927;SDS011;10126;50.876;4.470;2023-02-14T09:04:23;1.40;;;0.40;;
19927;SDS011;10126;50.876;4.470;2023-02-14T09:06:24;0.33;;;0.33;;
19927;SDS011;10126;50.876;4.470;2023-02-14T09:08:25;0.40;;;0.40;;
19927;SDS011;10126;50.876;4.470;2023-02-14T09:10:25;0.30;;;0.30;;
19927;SDS011;10126;50.876;4.470;2023-02-14T09:12:27;0.40;;;0.40;;
19927;SDS011;10126;50.876;4.470;2023-02-14T09:14:27;0.37;;;0.37;;
19927;SDS011;10126;50.876;4.470;2023-02-14T09:16:28;0.30;;;0.30;;
19927;SDS011;10126;50.876;4.470;2023-02-14T09:18:29;0.30;;;0.30;;
19927;SDS011;10126;50.876;4.470;2023-02-14T09:20:29;0.30;;;0.30;;
19927;SDS011;10126;50.876;4.470;2023-02-14T09:22:30;0.20;;;0.20;;
19927;SDS011;10126;50.876;4.470;2023-02-14T09:24:32;0.40;;;0.40;;
19927;SDS011;10126;50.876;4.470;2023-02-14T09:26:33;0.30;;;0.30;;
19927;SDS011;10126;50.876;4.470;2023-02-14T09:28:35;0.30;;;0.30;;
19927;SDS011;10126;50.876;4.470;2023-02-14T09:30:36;0.30;;;0.30;;
19927;SDS011;10126;50.876;4.470;2023-02-14T09:32:37;0.30;;;0.30;;
19927;SDS011;10126;50.876;4.470;2023-02-14T09:34:37;0.30;;;0.30;;
19927;SDS011;10126;50.876;4.470;2023-02-14T09:36:39;0.30;;;0.30;;
19927;SDS011;10126;50.876;4.470;2023-02-14T09:38:58;0.30;;;0.30;;
19927;SDS011;10126;50.876;4.470;2023-02-14T09:40:59;0.30;;;0.30;;
19927;SDS011;10126;50.876;4.470;2023-02-14T09:45:38;0.30;;;0.30;;
19927;SDS011;10126;50.876;4.470;2023-02-14T09:49:54;0.30;;;0.30;;
19927;SDS011;10126;50.876;4.470;2023-02-14T09:51:55;0.30;;;0.30;;
19927;SDS011;10126;50.876;4.470;2023-02-14T09:53:59;0.37;;;0.37;;
19927;SDS011;10126;50.876;4.470;2023-02-14T09:56:13;0.30;;;0.30;;
19927;SDS011;10126;50.876;4.470;2023-02-14T09:58:43;0.30;;;0.30;;
19927;SDS011;10126;50.876;4.470;2023-02-14T10:01:15;0.30;;;0.30;;
19927;SDS011;10126;50.876;4.470;2023-02-14T10:05:54;0.20;;;0.20;;
19927;SDS011;10126;50.876;4.470;2023-02-14T10:12:32;0.33;;;0.33;;
19927;SDS011;10126;50.876;4.470;2023-02-14T10:14:41;0.30;;;0.30;;
19927;SDS011;10126;50.876;4.470;2023-02-14T10:16:44;0.20;;;0.20;;
19927;SDS011;10126;50.876;4.470;2023-02-14T10:21:03;0.30;;;0.30;;
19927;SDS011;10126;50.876;4.470;2023-02-14T10:23:20;0.30;;;0.30;;
19927;SDS011;10126;50.876;4.470;2023-02-14T10:25:26;0.30;;;0.30;;
19927;SDS011;10126;50.876;4.470;2023-02-14T10:27:33;0.30;;;0.30;;
19927;SDS011;10126;50.876;4.470;2023-02-14T10:29:43;0.20;;;0.20;;
19927;SDS011;10126;50.876;4.470;2023-02-14T10:34:07;0.30;;;0.30;;
19927;SDS011;10126;50.876;4.470;2023-02-14T10:43:19;0.30;;;0.30;;
19927;SDS011;10126;50.876;4.470;2023-02-14T10:47:52;0.20;;;0.20;;
19927;SDS011;10126;50.876;4.470;2023-02-14T10:50:02;0.30;;;0.30;;
19927;SDS011;10126;50.876;4.470;2023-02-14T10:54:39;0.20;;;0.20;;
19927;SDS011;10126;50.876;4.470;2023-02-14T10:58:52;0.30;;;0.30;;
19927;SDS011;10126;50.876;4.470;2023-02-14T11:01:00;0.30;;;0.30;;
19927;SDS011;10126;50.876;4.470;2023-02-14T11:03:07;0.30;;;0.30;;
19927;SDS011;10126;50.876;4.470;2023-02-14T11:05:26;0.30;;;0.30;;
19927;SDS011;10126;50.876;4.470;2023-02-14T11:07:31;0.30;;;0.30;;
19927;SDS011;10126;50.876;4.470;2023-02-14T11:09:32;0.30;;;0.30;;
19927;SDS011;10126;50.876;4.470;2023-02-14T11:13:40;0.30;;;0.30;;
19927;SDS011;10126;50.876;4.470;2023-02-14T11:15:41;0.30;;;0.30;;
19927;SDS011;10126;50.876;4.470;2023-02-14T11:17:49;0.30;;;0.30;;
19927;SDS011;10126;50.876;4.470;2023-02-14T11:22:30;0.20;;;0.20;;
19927;SDS011;10126;50.876;4.470;2023-02-14T11:24:33;0.20;;;0.20;;
19927;SDS011;10126;50.876;4.470;2023-02-14T11:26:35;0.30;;;0.30;;
19927;SDS011;10126;50.876;4.470;2023-02-14T11:28:37;0.30;;;0.30;;
19927;SDS011;10126;50.876;4.470;2023-02-14T11:30:48;0.20;;;0.20;;
19927;SDS011;10126;50.876;4.470;2023-02-14T11:32:50;0.30;;;0.30;;
19927;SDS011;10126;50.876;4.470;2023-02-14T11:37:30;0.23;;;0.23;;
19927;SDS011;10126;50.876;4.470;2023-02-14T11:39:36;0.30;;;0.30;;
19927;SDS011;10126;50.876;4.470;2023-02-14T11:41:45;0.20;;;0.20;;
19927;SDS011;10126;50.876;4.470;2023-02-14T11:43:48;0.27;;;0.27;;
19927;SDS011;10126;50.876;4.470;2023-02-14T11:45:51;0.30;;;0.30;;
19927;SDS011;10126;50.876;4.470;2023-02-14T11:48:20;0.30;;;0.30;;
19927;SDS011;10126;50.876;4.470;2023-02-14T11:50:22;0.23;;;0.23;;
19927;SDS011;10126;50.876;4.470;2023-02-14T11:52:24;0.30;;;0.30;;
19927;SDS011;10126;50.876;4.470;2023-02-14T11:56:42;0.23;;;0.23;;
19927;SDS011;10126;50.876;4.470;2023-02-14T12:00:55;0.20;;;0.20;;
19927;SDS011;10126;50.876;4.470;2023-02-14T12:02:56;0.30;;;0.30;;
19927;SDS011;10126;50.876;4.470;2023-02-14T12:05:04;0.27;;;0.27;;
19927;SDS011;10126;50.876;4.470;2023-02-14T12:07:27;0.30;;;0.30;;
19927;SDS011;10126;50.876;4.470;2023-02-14T12:09:30;0.20;;;0.20;;
19927;SDS011;10126;50.876;4.470;2023-02-14T12:11:31;0.30;;;0.30;;
19927;SDS011;10126;50.876;4.470;2023-02-14T12:13:32;0.30;;;0.30;;
19927;SDS011;10126;50.876;4.470;2023-02-14T12:15:34;0.30;;;0.30;;
19927;SDS011;10126;50.876;4.470;2023-02-14T12:17:39;0.30;;;0.30;;
19927;SDS011;10126;50.876;4.470;2023-02-14T12:19:45;0.27;;;0.27;;
19927;SDS011;10126;50.876;4.470;2023-02-14T12:21:50;0.30;;;0.30;;
19927;SDS011;10126;50.876;4.470;2023-02-14T12:23:59;0.30;;;0.30;;
19927;SDS011;10126;50.876;4.470;2023-02-14T12:26:39;0.30;;;0.30;;
19927;SDS011;10126;50.876;4.470;2023-02-14T12:28:50;0.20;;;0.20;;
19927;SDS011;10126;50.876;4.470;2023-02-14T12:31:29;0.30;;;0.30;;
19927;SDS011;10126;50.876;4.470;2023-02-14T12:33:30;0.30;;;0.30;;
19927;SDS011;10126;50.876;4.470;2023-02-14T12:35:46;0.20;;;0.20;;
19927;SDS011;10126;50.876;4.470;2023-02-14T12:42:53;0.20;;;0.20;;
19927;SDS011;10126;50.876;4.470;2023-02-14T12:45:19;0.30;;;0.30;;
19927;SDS011;10126;50.876;4.470;2023-02-14T12:52:31;0.30;;;0.30;;
19927;SDS011;10126;50.876;4.470;2023-02-14T12:55:52;0.30;;;0.30;;
19927;SDS011;10126;50.876;4.470;2023-02-14T12:57:31;0.30;;;0.30;;
19927;SDS011;10126;50.876;4.470;2023-02-14T13:04:47;0.20;;;0.20;;
19927;SDS011;10126;50.876;4.470;2023-02-14T13:07:12;0.20;;;0.20;;
19927;SDS011;10126;50.876;4.470;2023-02-14T13:09:28;0.20;;;0.20;;
19927;SDS011;10126;50.876;4.470;2023-02-14T13:12:00;0.30;;;0.30;;
19927;SDS011;10126;50.876;4.470;2023-02-14T13:14:59;0.30;;;0.30;;
19927;SDS011;10126;50.876;4.470;2023-02-14T13:17:18;0.30;;;0.30;;
19927;SDS011;10126;50.876;4.470;2023-02-14T13:21:56;0.30;;;0.30;;
19927;SDS011;10126;50.876;4.470;2023-02-14T13:24:06;0.30;;;0.30;;
19927;SDS011;10126;50.876;4.470;2023-02-14T13:26:27;0.20;;;0.20;;
19927;SDS011;10126;50.876;4.470;2023-02-14T13:28:30;0.20;;;0.20;;
19927;SDS011;10126;50.876;4.470;2023-02-14T13:30:33;0.30;;;0.30;;
19927;SDS011;10126;50.876;4.470;2023-02-14T13:32:37;0.30;;;0.30;;
19927;SDS011;10126;50.876;4.470;2023-02-14T13:34:42;0.30;;;0.30;;
19927;SDS011;10126;50.876;4.470;2023-02-14T13:36:45;0.30;;;0.30;;
19927;SDS011;10126;50.876;4.470;2023-02-14T13:38:48;0.20;;;0.20;;
19927;SDS011;10126;50.876;4.470;2023-02-14T13:40:52;0.20;;;0.20;;
19927;SDS011;10126;50.876;4.470;2023-02-14T13:42:58;0.20;;;0.20;;
19927;SDS011;10126;50.876;4.470;2023-02-14T13:45:00;0.20;;;0.20;;
19927;SDS011;10126;50.876;4.470;2023-02-14T13:47:00;0.20;;;0.20;;
19927;SDS011;10126;50.876;4.470;2023-02-14T13:51:18;0.20;;;0.20;;
19927;SDS011;10126;50.876;4.470;2023-02-14T13:54:01;0.20;;;0.20;;
19927;SDS011;10126;50.876;4.470;2023-02-14T13:55:42;0.20;;;0.20;;
19927;SDS011;10126;50.876;4.470;2023-02-14T13:57:44;0.30;;;0.30;;
19927;SDS011;10126;50.876;4.470;2023-02-14T13:59:46;0.20;;;0.20;;
19927;SDS011;10126;50.876;4.470;2023-02-14T14:06:29;0.20;;;0.20;;
19927;SDS011;10126;50.876;4.470;2023-02-14T14:08:50;0.30;;;0.30;;
19927;SDS011;10126;50.876;4.470;2023-02-14T14:10:55;0.30;;;0.30;;
19927;SDS011;10126;50.876;4.470;2023-02-14T14:13:00;0.30;;;0.30;;
19927;SDS011;10126;50.876;4.470;2023-02-14T14:17:16;0.20;;;0.20;;
19927;SDS011;10126;50.876;4.470;2023-02-14T14:21:23;0.20;;;0.20;;
19927;SDS011;10126;50.876;4.470;2023-02-14T14:23:33;0.20;;;0.20;;
19927;SDS011;10126;50.876;4.470;2023-02-14T14:25:36;0.20;;;0.20;;
19927;SDS011;10126;50.876;4.470;2023-02-14T14:27:40;0.30;;;0.30;;
19927;SDS011;10126;50.876;4.470;2023-02-14T14:29:51;0.20;;;0.20;;